Time;durP1;ratioP1;P1;durP2;ratioP2;P2;SDS_P1;SDS_P2;PMS_P1;PMS_P2;Temp;Humidity;BMP_temperature;BMP_pressure;BME280_temperature;BME280_humidity;BME280_pressure;Samples;Min_cycle;Max_cycle;Signal;HPM_P1;HPM_P2
2023/04/22 00:00:46;;;;;;;;;;;;;;;30.12;53.55;100692.06;5092382;27;70454;-40
2023/04/22 00:03:17;;;;;;;;;;;;;;;30.21;58.39;100698.84;5089260;27;65583;-41
2023/04/22 00:05:47;;;;;;;;;;;;;;;30.33;69.88;100701.69;5090707;27;69791;-40
2023/04/22 00:08:18;;;;;;;;;;;;;;;30.41;76.04;100700.59;5091992;27;66899;-40
2023/04/22 00:10:48;;;;;;;;;;;;;;;30.46;78.52;100701.59;5089192;27;68403;-39
2023/04/22 00:13:19;;;;;;;;;;;;;;;30.57;75.60;100700.03;5090359;27;65705;-40
2023/04/22 00:15:49;;;;;;;;;;;;;;;30.64;75.53;100700.78;5087615;27;69726;-41
2023/04/22 00:18:20;;;;;;;;;;;;;;;30.69;75.08;100709.06;5092416;27;66215;-40
2023/04/22 00:20:51;;;;;;;;;;;;;;;30.75;74.89;100714.66;5095200;27;69699;-38
2023/04/22 00:23:21;;;;;;;;;;;;;;;30.78;74.52;100714.19;5092918;27;65456;-41
2023/04/22 00:25:51;;;;;;;;;;;;;;;30.80;74.71;100717.53;5094676;27;69755;-42
2023/04/22 00:28:21;;;;;;;;;;;;;;;30.82;74.66;100718.16;5087959;27;65629;-41
2023/04/22 00:30:52;;;;;;;;;;;;;;;30.84;74.64;100719.59;5087445;27;70425;-40
2023/04/22 00:33:22;;;;;;;;;;;;;;;30.87;74.39;100718.28;5099000;27;66087;-42
2023/04/22 00:35:53;;;;;;;;;;;;;;;30.87;74.28;100721.84;5086339;27;70048;-42
2023/04/22 00:38:24;;;;;;;;;;;;;;;30.90;74.20;100723.28;5088763;27;66280;-41
2023/04/22 00:40:54;;;;;;;;;;;;;;;30.91;74.48;100727.63;5093569;27;69980;-41
2023/04/22 00:43:24;;;;;;;;;;;;;;;30.97;74.00;100728.63;5096335;27;66797;-41
2023/04/22 00:45:56;;;;;;;;;;;;;;;30.99;74.14;100729.22;5092294;27;71388;-41
2023/04/22 00:48:26;;;;;;;;;;;;;;;30.99;74.19;100727.34;5088893;27;66390;-41
2023/04/22 00:50:57;;;;;;;;;;;;;;;30.99;74.49;100738.19;5096551;27;71459;-41
2023/04/22 00:53:27;;;;;;;;;;;;;;;31.01;74.36;100738.78;5095836;27;66332;-41
2023/04/22 00:55:58;;;;;;;;;;;;;;;31.05;74.31;100736.44;5085980;27;70500;-41
2023/04/22 00:58:29;;;;;;;;;;;;;;;31.04;74.86;100740.22;5085109;27;66680;-42
2023/04/22 01:00:59;;;;;;;;;;;;;;;31.05;74.81;100742.69;5097336;27;70549;-41
2023/04/22 01:03:30;;;;;;;;;;;;;;;31.08;75.88;100736.81;5090916;27;66850;-44
2023/04/22 01:06:00;;;;;;;;;;;;;;;31.11;76.20;100739.06;5104900;27;69838;-46
2023/04/22 01:08:31;;;;;;;;;;;;;;;31.12;76.96;100738.03;5090554;27;65775;-43
2023/04/22 01:11:02;;;;;;;;;;;;;;;31.14;76.47;100730.50;5089113;27;70720;-45
2023/04/22 01:13:32;;;;;;;;;;;;;;;31.15;76.28;100729.47;5093515;27;65148;-43
2023/04/22 01:16:04;;;;;;;;;;;;;;;31.16;76.29;100733.81;5091932;27;70614;-44
2023/04/22 01:18:35;;;;;;;;;;;;;;;31.19;75.83;100737.13;5082328;27;66563;-43
2023/04/22 01:21:06;;;;;;;;;;;;;;;31.18;75.73;100741.72;5093470;27;71222;-44
2023/04/22 01:23:37;;;;;;;;;;;;;;;31.21;75.66;100754.00;5093092;27;66412;-43
2023/04/22 01:26:07;;;;;;;;;;;;;;;31.23;75.28;100751.88;5104725;27;70659;-44
2023/04/22 01:28:38;;;;;;;;;;;;;;;31.24;75.58;100746.25;5090729;27;66212;-43
2023/04/22 01:31:08;;;;;;;;;;;;;;;31.26;75.68;100752.28;5087953;27;69508;-44
2023/04/22 01:33:39;;;;;;;;;;;;;;;31.26;75.38;100749.56;5093913;27;66734;-44
2023/04/22 01:36:10;;;;;;;;;;;;;;;31.30;75.48;100755.34;5085703;27;70495;-44
2023/04/22 01:38:40;;;;;;;;;;;;;;;31.29;75.51;100746.41;5090502;27;66901;-44
2023/04/22 01:41:12;;;;;;;;;;;;;;;31.32;75.48;100747.84;5089929;27;70117;-44
2023/04/22 01:43:43;;;;;;;;;;;;;;;31.32;75.37;100737.00;5101687;27;67154;-45
2023/04/22 01:46:15;;;;;;;;;;;;;;;31.35;75.25;100744.66;5088216;27;70655;-43
2023/04/22 01:48:50;;;;;;;;;;;;;;;31.14;75.52;100706.09;5092124;27;65953;-44
2023/04/22 01:51:25;;;;;;;;;;;;;;;31.37;75.51;100734.44;5103114;27;70112;-46
2023/04/22 01:53:57;;;;;;;;;;;;;;;31.41;75.11;100732.94;5084576;27;65636;-44
2023/04/22 01:56:27;;;;;;;;;;;;;;;31.43;74.74;100738.97;5091836;27;70371;-44
2023/04/22 01:58:57;;;;;;;;;;;;;;;31.48;73.44;100735.56;5093810;27;65781;-44
2023/04/22 02:01:31;;;;;;;;;;;;;;;31.55;72.51;100734.41;5108977;27;70313;-43
2023/04/22 02:04:01;;;;;;;;;;;;;;;31.60;71.82;100726.44;5091018;27;66059;-45
2023/04/22 02:06:32;;;;;;;;;;;;;;;31.66;71.29;100732.81;5091521;27;70508;-44
2023/04/22 02:09:05;;;;;;;;;;;;;;;31.70;71.09;100717.72;5092035;27;66699;-44
2023/04/22 02:11:36;;;;;;;;;;;;;;;31.75;70.75;100720.59;5093527;27;71065;-44
2023/04/22 02:14:06;;;;;;;;;;;;;;;31.80;70.90;100728.03;5099159;27;66185;-44
2023/04/22 02:16:37;;;;;;;;;;;;;;;31.85;70.24;100720.06;5092462;27;70367;-45
2023/04/22 02:19:07;;;;;;;;;;;;;;;31.89;70.30;100726.66;5096574;27;66572;-45
2023/04/22 02:21:37;;;;;;;;;;;;;;;31.93;70.40;100727.88;5090962;27;69882;-45
2023/04/22 02:24:07;;;;;;;;;;;;;;;31.97;70.17;100736.38;5094518;27;66586;-44
2023/04/22 02:26:37;;;;;;;;;;;;;;;31.98;70.09;100736.16;5092381;27;69839;-44
2023/04/22 02:29:07;;;;;;;;;;;;;;;32.01;70.25;100734.84;5089260;27;66891;-44
2023/04/22 02:31:38;;;;;;;;;;;;;;;32.04;70.45;100732.53;5089903;27;70535;-43
2023/04/22 02:34:10;;;;;;;;;;;;;;;32.07;70.42;100727.66;5091898;27;66141;-44
2023/04/22 02:36:40;;;;;;;;;;;;;;;32.10;70.50;100722.63;5097168;27;70050;-46
2023/04/22 02:39:11;;;;;;;;;;;;;;;32.13;70.43;100710.47;5093685;27;66428;-43
2023/04/22 02:41:42;;;;;;;;;;;;;;;32.16;70.32;100702.69;5094518;27;69974;-44
2023/04/22 02:44:12;;;;;;;;;;;;;;;32.20;70.35;100700.34;5080045;27;66552;-44
2023/04/22 02:46:43;;;;;;;;;;;;;;;32.23;70.41;100699.84;5087525;27;70524;-43
2023/04/22 02:49:13;;;;;;;;;;;;;;;32.26;70.42;100704.81;5109675;27;66069;-44
2023/04/22 02:51:43;;;;;;;;;;;;;;;32.29;70.38;100704.38;5094848;27;70428;-44
2023/04/22 02:54:14;;;;;;;;;;;;;;;32.32;70.06;100705.78;5092662;27;65920;-44
2023/04/22 02:56:45;;;;;;;;;;;;;;;32.34;69.95;100700.94;5086474;27;69905;-44
2023/04/22 02:59:15;;;;;;;;;;;;;;;32.37;70.11;100703.19;5095068;27;66590;-44
2023/04/22 03:01:46;;;;;;;;;;;;;;;32.40;69.76;100700.84;5084448;27;69987;-45
2023/04/22 03:04:31;;;;;;;;;;;;;;;32.42;69.61;100698.69;5092839;27;64844;-45
2023/04/22 03:07:01;;;;;;;;;;;;;;;32.45;69.63;100702.84;5085876;27;70301;-45
2023/04/22 03:09:32;;;;;;;;;;;;;;;32.47;69.33;100704.28;5092117;27;66674;-44
2023/04/22 03:12:02;;;;;;;;;;;;;;;32.48;69.42;100688.81;5097300;27;70173;-44
2023/04/22 03:14:32;;;;;;;;;;;;;;;32.54;69.20;100692.47;5092338;27;66655;-43
2023/04/22 03:17:02;;;;;;;;;;;;;;;32.56;69.11;100687.66;5091124;27;69496;-44
2023/04/22 03:19:33;;;;;;;;;;;;;;;32.58;68.87;100685.53;5069160;27;65363;-44
2023/04/22 03:22:03;;;;;;;;;;;;;;;32.60;68.81;100678.78;5093610;27;70423;-44
2023/04/22 03:24:34;;;;;;;;;;;;;;;32.62;68.53;100678.53;5093345;27;65747;-44
2023/04/22 03:27:08;;;;;;;;;;;;;;;32.63;68.50;100678.31;5088684;27;69909;-45
2023/04/22 03:29:40;;;;;;;;;;;;;;;32.64;68.28;100679.13;5099262;27;66643;-44
2023/04/22 03:32:10;;;;;;;;;;;;;;;32.67;68.29;100682.19;5097590;27;69762;-45
2023/04/22 03:34:41;;;;;;;;;;;;;;;32.68;67.98;100677.59;5085594;27;67303;-45
2023/04/22 03:37:12;;;;;;;;;;;;;;;32.69;67.99;100676.53;5094680;27;70262;-45
2023/04/22 03:39:42;;;;;;;;;;;;;;;32.71;67.46;100679.84;5096321;27;66453;-44
2023/04/22 03:42:14;;;;;;;;;;;;;;;32.72;67.35;100679.59;5096082;27;70532;-44
2023/04/22 03:44:45;;;;;;;;;;;;;;;32.75;67.38;100675.59;5095975;27;66840;-43
2023/04/22 03:47:18;;;;;;;;;;;;;;;32.65;68.38;100664.50;5108183;27;70288;-43
2023/04/22 03:49:55;;;;;;;;;;;;;;;32.58;68.73;100666.53;5098050;27;66761;-48
2023/04/22 03:52:25;;;;;;;;;;;;;;;32.57;69.04;100664.84;5090924;27;69762;-45
2023/04/22 03:55:01;;;;;;;;;;;;;;;32.52;69.30;100662.03;5097166;27;65693;-43
2023/04/22 03:57:34;;;;;;;;;;;;;;;32.53;69.06;100663.69;5104814;27;68584;-44
2023/04/22 04:00:05;;;;;;;;;;;;;;;32.50;69.09;100662.25;5092269;27;66560;-44
2023/04/22 04:02:41;;;;;;;;;;;;;;;32.47;69.08;100658.13;5085584;27;69904;-44
2023/04/22 04:05:16;;;;;;;;;;;;;;;32.47;69.05;100663.56;5091617;27;66790;-44
2023/04/22 04:07:48;;;;;;;;;;;;;;;32.52;69.08;100659.31;5091923;27;69392;-44
2023/04/22 04:10:18;;;;;;;;;;;;;;;32.52;69.13;100656.63;5091478;27;66260;-44
2023/04/22 04:12:49;;;;;;;;;;;;;;;32.59;68.75;100660.00;5082346;27;69417;-45
2023/04/22 04:15:22;;;;;;;;;;;;;;;32.68;68.15;100653.16;5092023;27;66111;-44
2023/04/22 04:17:54;;;;;;;;;;;;;;;32.76;68.05;100655.50;5102212;27;69234;-44
2023/04/22 04:20:27;;;;;;;;;;;;;;;32.83;67.62;100645.34;5107741;27;65042;-43
2023/04/22 04:22:57;;;;;;;;;;;;;;;32.88;67.36;100634.59;5090047;27;70608;-45
2023/04/22 04:25:29;;;;;;;;;;;;;;;32.93;67.02;100634.69;5084661;27;66590;-45
2023/04/22 04:28:04;;;;;;;;;;;;;;;33.00;66.91;100631.03;5090036;27;69773;-44
2023/04/22 04:30:35;;;;;;;;;;;;;;;33.04;66.58;100626.75;5094892;27;65584;-44
2023/04/22 04:33:06;;;;;;;;;;;;;;;33.08;66.17;100625.22;5105201;27;70385;-44
2023/04/22 04:35:38;;;;;;;;;;;;;;;33.11;66.11;100622.03;5108252;27;65256;-43
2023/04/22 04:38:11;;;;;;;;;;;;;;;33.12;65.92;100618.22;5090064;27;70237;-43
2023/04/22 04:40:42;;;;;;;;;;;;;;;32.98;65.54;100624.97;5091902;27;67301;-47
2023/04/22 04:43:17;;;;;;;;;;;;;;;32.70;62.99;100613.00;5093459;27;69884;-44
2023/04/22 04:45:52;;;;;;;;;;;;;;;32.53;61.19;100618.34;5090496;27;66775;-44
2023/04/22 04:48:34;;;;;;;;;;;;;;;32.35;59.12;100610.31;5108673;27;69764;-42
2023/04/22 04:51:09;;;;;;;;;;;;;;;32.18;57.35;100604.75;5094749;27;65516;-44
2023/04/22 04:53:49;;;;;;;;;;;;;;;32.04;55.93;100599.56;5089437;27;69821;-44
2023/04/22 04:56:20;;;;;;;;;;;;;;;31.93;54.98;100589.53;5088572;27;66620;-43
2023/04/22 04:58:50;;;;;;;;;;;;;;;31.85;53.65;100584.44;5092401;27;69857;-44
2023/04/22 05:01:27;;;;;;;;;;;;;;;31.78;52.88;100578.28;5091453;27;66552;-44
2023/04/22 05:04:03;;;;;;;;;;;;;;;31.71;52.00;100577.56;5093061;27;69549;-45
2023/04/22 05:06:34;;;;;;;;;;;;;;;31.68;51.54;100572.59;5096388;27;65272;-41
2023/04/22 05:09:06;;;;;;;;;;;;;;;31.73;51.85;100564.59;5079220;27;71167;-42
2023/04/22 05:11:37;;;;;;;;;;;;;;;31.77;50.48;100560.34;5100930;27;66036;-43
2023/04/22 05:14:14;;;;;;;;;;;;;;;31.79;49.15;100552.81;5087407;27;70354;-42
2023/04/22 05:16:46;;;;;;;;;;;;;;;31.81;48.54;100548.78;5094126;27;65008;-43
2023/04/22 05:19:16;;;;;;;;;;;;;;;31.81;47.56;100550.69;5092205;27;70743;-44
2023/04/22 05:21:48;;;;;;;;;;;;;;;31.78;47.09;100543.84;5091533;27;65463;-44
2023/04/22 05:24:20;;;;;;;;;;;;;;;31.81;46.50;100535.22;5103874;27;69843;-43
2023/04/22 05:26:51;;;;;;;;;;;;;;;31.81;46.21;100523.56;5087255;27;66225;-45
2023/04/22 05:29:21;;;;;;;;;;;;;;;31.78;45.93;100522.13;5108730;27;70616;-43
2023/04/22 05:31:52;;;;;;;;;;;;;;;31.80;45.53;100511.88;5093831;27;66298;-44
2023/04/22 05:34:23;;;;;;;;;;;;;;;31.79;45.58;100514.84;5091911;27;69173;-45
2023/04/22 05:36:55;;;;;;;;;;;;;;;31.78;45.25;100510.47;5106877;27;67109;-43
2023/04/22 05:39:26;;;;;;;;;;;;;;;31.78;44.58;100502.34;5095434;27;70812;-43
2023/04/22 05:41:59;;;;;;;;;;;;;;;31.81;44.76;100491.00;5103682;27;67305;-42
2023/04/22 05:44:31;;;;;;;;;;;;;;;31.85;44.53;100491.38;5108138;27;69961;-43
2023/04/22 05:47:02;;;;;;;;;;;;;;;31.85;44.40;100492.22;5099407;27;66183;-46
2023/04/22 05:49:32;;;;;;;;;;;;;;;31.86;44.12;100480.28;5099809;27;68665;-42
2023/04/22 05:52:08;;;;;;;;;;;;;;;31.89;43.99;100477.09;5094052;27;65985;-45
2023/04/22 05:55:01;;;;;;;;;;;;;;;31.93;44.07;100469.34;5094990;27;70008;-46
2023/04/22 05:57:31;;;;;;;;;;;;;;;31.89;43.41;100468.13;5093263;27;66638;-43
2023/04/22 06:00:08;;;;;;;;;;;;;;;31.91;43.99;100468.72;5113986;27;70023;-41
2023/04/22 06:02:44;;;;;;;;;;;;;;;31.95;44.72;100465.31;5092274;27;66707;-44
2023/04/22 06:05:15;;;;;;;;;;;;;;;31.93;44.95;100462.03;5082796;27;69867;-45
2023/04/22 06:07:46;;;;;;;;;;;;;;;31.92;44.44;100444.09;5097954;27;67040;-45
2023/04/22 06:10:16;;;;;;;;;;;;;;;31.95;44.49;100448.22;5092563;27;68822;-44
2023/04/22 06:12:47;;;;;;;;;;;;;;;31.97;44.04;100440.69;5093225;27;66442;-44
2023/04/22 06:15:17;;;;;;;;;;;;;;;31.99;43.73;100442.09;5082965;27;68849;-43
2023/04/22 06:17:48;;;;;;;;;;;;;;;32.00;43.12;100441.03;5114264;27;66051;-42
2023/04/22 06:20:19;;;;;;;;;;;;;;;32.02;43.22;100438.91;5096108;27;69245;-42
2023/04/22 06:22:49;;;;;;;;;;;;;;;32.04;42.58;100435.97;5097367;27;65262;-43
2023/04/22 06:25:20;;;;;;;;;;;;;;;32.07;42.44;100431.91;5093517;27;70582;-43
2023/04/22 06:27:50;;;;;;;;;;;;;;;32.10;42.45;100428.75;5097172;27;66835;-45
2023/04/22 06:30:22;;;;;;;;;;;;;;;32.12;41.89;100421.19;5107523;27;70508;-44
2023/04/22 06:32:54;;;;;;;;;;;;;;;32.16;42.25;100411.50;5094416;27;66564;-44
2023/04/22 06:35:25;;;;;;;;;;;;;;;32.19;42.09;100408.31;5111919;27;70105;-46
2023/04/22 06:37:56;;;;;;;;;;;;;;;32.16;41.76;100406.91;5099736;27;68337;-44
2023/04/22 06:40:31;;;;;;;;;;;;;;;32.24;41.57;100405.72;5112926;27;69212;-44
2023/04/22 06:43:12;;;;;;;;;;;;;;;32.26;41.53;100403.56;5093358;27;66920;-42
2023/04/22 06:46:02;;;;;;;;;;;;;;;32.29;40.83;100392.25;5093312;27;69216;-42
2023/04/22 06:49:00;;;;;;;;;;;;;;;32.34;40.91;100388.78;5099324;27;66180;-44
2023/04/22 06:51:31;;;;;;;;;;;;;;;32.34;40.56;100386.88;5095357;27;69835;-43
2023/04/22 06:54:02;;;;;;;;;;;;;;;32.39;41.02;100384.28;5114294;27;67384;-42
2023/04/22 06:56:32;;;;;;;;;;;;;;;32.39;41.04;100389.69;5112653;27;70285;-42
2023/04/22 06:59:03;;;;;;;;;;;;;;;32.24;40.82;100351.44;5093000;27;66549;-43
2023/04/22 07:01:33;;;;;;;;;;;;;;;32.51;40.97;100380.72;5079868;27;71119;-42
2023/04/22 07:04:04;;;;;;;;;;;;;;;32.53;40.43;100367.72;5092614;27;67348;-43
2023/04/22 07:06:35;;;;;;;;;;;;;;;32.56;40.28;100372.66;5085178;27;70021;-42
2023/04/22 07:09:07;;;;;;;;;;;;;;;32.58;40.01;100360.50;5098913;27;66085;-43
2023/04/22 07:11:38;;;;;;;;;;;;;;;32.60;39.85;100352.13;5094736;27;69074;-43
2023/04/22 07:14:17;;;;;;;;;;;;;;;32.60;39.85;100352.94;5112099;27;66548;-43
2023/04/22 07:16:47;;;;;;;;;;;;;;;32.68;39.79;100343.53;5090380;27;70441;-43
2023/04/22 07:19:18;;;;;;;;;;;;;;;32.68;40.10;100348.97;5093976;27;66190;-44
2023/04/22 07:21:48;;;;;;;;;;;;;;;32.73;40.03;100338.22;5087458;27;68655;-44
2023/04/22 07:24:18;;;;;;;;;;;;;;;32.80;39.99;100338.88;5090948;27;66186;-45
2023/04/22 07:26:49;;;;;;;;;;;;;;;32.79;39.21;100333.69;5092448;27;69468;-45
2023/04/22 07:29:19;;;;;;;;;;;;;;;32.79;39.30;100331.81;5091667;27;65975;-44
2023/04/22 07:31:50;;;;;;;;;;;;;;;32.82;39.14;100331.31;5109103;27;69905;-45
2023/04/22 07:34:21;;;;;;;;;;;;;;;32.83;39.28;100324.00;5090644;27;65422;-44
2023/04/22 07:36:52;;;;;;;;;;;;;;;32.86;38.95;100323.50;5092509;27;70698;-44
2023/04/22 07:39:22;;;;;;;;;;;;;;;32.88;38.79;100324.06;5096148;27;65289;-44
2023/04/22 07:41:52;;;;;;;;;;;;;;;32.90;38.98;100319.19;5091865;27;70292;-44
2023/04/22 07:44:23;;;;;;;;;;;;;;;32.93;38.67;100299.69;5088830;27;66681;-45
2023/04/22 07:46:53;;;;;;;;;;;;;;;32.91;38.62;100299.94;5091985;27;70741;-44
2023/04/22 07:49:23;;;;;;;;;;;;;;;32.93;38.52;100292.38;5095048;27;65649;-44
2023/04/22 07:51:53;;;;;;;;;;;;;;;32.98;38.67;100293.50;5092657;27;70390;-45
2023/04/22 07:54:23;;;;;;;;;;;;;;;33.03;38.87;100285.47;5093499;27;66555;-44
2023/04/22 07:56:54;;;;;;;;;;;;;;;33.03;38.65;100291.72;5089739;27;68862;-44
2023/04/22 07:59:24;;;;;;;;;;;;;;;33.07;38.34;100281.16;5090879;27;66125;-44
2023/04/22 08:01:54;;;;;;;;;;;;;;;33.06;38.29;100280.34;5091746;27;69940;-43
2023/04/22 08:04:25;;;;;;;;;;;;;;;33.05;37.98;100280.63;5095101;27;66849;-44
2023/04/22 08:06:56;;;;;;;;;;;;;;;33.06;38.04;100284.97;5094080;27;70131;-43
2023/04/22 08:09:28;;;;;;;;;;;;;;;33.08;38.07;100288.25;5093788;27;65427;-43
2023/04/22 08:11:58;;;;;;;;;;;;;;;33.07;38.52;100275.72;5085992;27;70430;-45
2023/04/22 08:14:29;;;;;;;;;;;;;;;33.07;39.10;100270.28;5094637;27;66055;-44
2023/04/22 08:16:59;;;;;;;;;;;;;;;33.09;38.89;100273.59;5088674;27;70498;-43
2023/04/22 08:19:32;;;;;;;;;;;;;;;33.15;38.50;100267.16;5092439;27;60210;-43
2023/04/22 08:22:02;;;;;;;;;;;;;;;33.17;38.43;100262.31;5095388;27;69950;-45
2023/04/22 08:24:32;;;;;;;;;;;;;;;33.18;38.34;100263.13;5087590;27;65481;-44
2023/04/22 08:27:03;;;;;;;;;;;;;;;33.15;38.12;100265.28;5087783;27;70538;-45
2023/04/22 08:29:34;;;;;;;;;;;;;;;33.14;37.84;100265.53;5093290;27;66283;-45
2023/04/22 08:32:04;;;;;;;;;;;;;;;33.13;37.82;100263.88;5090860;27;70656;-43
2023/04/22 08:34:35;;;;;;;;;;;;;;;33.15;37.66;100268.00;5097801;27;67078;-46
2023/04/22 08:37:07;;;;;;;;;;;;;;;33.20;38.27;100263.69;5091362;27;69685;-44
2023/04/22 08:39:37;;;;;;;;;;;;;;;33.20;39.22;100272.66;5088912;27;67089;-44
2023/04/22 08:42:08;;;;;;;;;;;;;;;33.22;38.75;100256.94;5090488;27;69431;-44
2023/04/22 08:44:40;;;;;;;;;;;;;;;33.21;38.79;100255.31;5105287;27;66485;-45
2023/04/22 08:47:12;;;;;;;;;;;;;;;33.23;38.46;100242.25;5102710;27;70115;-43
2023/04/22 08:49:42;;;;;;;;;;;;;;;33.19;38.65;100246.56;5089477;27;65232;-43
2023/04/22 08:52:14;;;;;;;;;;;;;;;33.17;38.47;100246.00;5092220;27;70385;-45
2023/04/22 08:54:44;;;;;;;;;;;;;;;33.17;38.48;100237.84;5095461;27;65772;-42
2023/04/22 08:57:15;;;;;;;;;;;;;;;33.20;38.30;100242.78;5089097;27;70854;-43
2023/04/22 08:59:45;;;;;;;;;;;;;;;33.17;38.24;100243.28;5088189;27;65735;-43
2023/04/22 09:02:23;;;;;;;;;;;;;;;33.19;37.95;100230.25;5094778;27;70896;-43
2023/04/22 09:04:53;;;;;;;;;;;;;;;33.17;38.17;100235.13;5084135;27;66893;-43
2023/04/22 09:07:26;;;;;;;;;;;;;;;33.18;38.04;100225.88;5094120;27;70016;-42
2023/04/22 09:09:57;;;;;;;;;;;;;;;33.15;38.07;100227.25;5093503;27;67016;-45
2023/04/22 09:12:27;;;;;;;;;;;;;;;33.16;38.03;100230.78;5089903;27;69966;-42
2023/04/22 09:14:58;;;;;;;;;;;;;;;33.12;37.70;100224.19;5089126;27;66685;-44
2023/04/22 09:17:32;;;;;;;;;;;;;;;33.12;38.04;100214.13;5094370;27;69914;-44
2023/04/22 09:20:03;;;;;;;;;;;;;;;33.24;37.94;100211.31;5088016;27;66293;-43
2023/04/22 09:22:41;;;;;;;;;;;;;;;33.45;38.61;100211.56;5087130;27;69732;-43
2023/04/22 09:25:15;;;;;;;;;;;;;;;33.65;39.58;100209.09;5090299;27;66652;-44
2023/04/22 09:27:53;;;;;;;;;;;;;;;33.81;39.95;100210.91;5091127;27;70365;-42
2023/04/22 09:30:27;;;;;;;;;;;;;;;33.98;40.99;100210.78;5090801;27;66727;-43
2023/04/22 09:32:58;;;;;;;;;;;;;;;34.12;41.64;100208.50;5094501;27;69847;-43
2023/04/22 09:35:30;;;;;;;;;;;;;;;34.22;41.92;100226.84;5095839;27;67316;-44
2023/04/22 09:38:02;;;;;;;;;;;;;;;34.31;42.72;100227.19;5087810;27;70451;-42
2023/04/22 09:40:33;;;;;;;;;;;;;;;34.40;43.14;100233.78;5093765;27;66241;-45
2023/04/22 09:43:06;;;;;;;;;;;;;;;34.48;43.31;100233.31;5092956;27;71754;-43
2023/04/22 09:45:41;;;;;;;;;;;;;;;34.53;44.10;100232.53;5090228;27;67115;-45
2023/04/22 09:48:13;;;;;;;;;;;;;;;34.60;44.22;100239.44;5086603;27;69179;-49
2023/04/22 09:50:48;;;;;;;;;;;;;;;34.66;45.02;100232.13;5088880;27;66448;-45
2023/04/22 09:53:19;;;;;;;;;;;;;;;34.56;46.79;100235.56;5092259;27;69834;-44
2023/04/22 09:55:50;;;;;;;;;;;;;;;34.43;48.17;100238.69;5093345;27;65537;-46
2023/04/22 09:58:26;;;;;;;;;;;;;;;34.40;52.80;100247.41;5090415;27;69290;-46
2023/04/22 10:00:57;;;;;;;;;;;;;;;34.57;51.71;100250.81;5097595;27;66008;-46
2023/04/22 10:03:28;;;;;;;;;;;;;;;34.69;52.57;100253.38;5098220;27;69211;-44
2023/04/22 10:05:59;;;;;;;;;;;;;;;34.78;52.74;100256.44;5096878;27;66001;-47
2023/04/22 10:08:29;;;;;;;;;;;;;;;34.86;53.79;100256.78;5090058;27;70421;-45
2023/04/22 10:11:00;;;;;;;;;;;;;;;34.91;54.20;100256.81;5073822;27;66202;-45
2023/04/22 10:13:30;;;;;;;;;;;;;;;34.95;54.46;100259.81;5098322;27;70343;-44
2023/04/22 10:16:00;;;;;;;;;;;;;;;35.00;55.18;100261.78;5085089;27;66903;-45
2023/04/22 10:18:31;;;;;;;;;;;;;;;35.02;55.53;100263.16;5089813;27;69134;-44
2023/04/22 10:21:02;;;;;;;;;;;;;;;35.05;55.86;100275.41;5095515;27;65709;-45
2023/04/22 10:23:32;;;;;;;;;;;;;;;35.05;55.42;100276.25;5089361;27;70260;-45
2023/04/22 10:26:04;;;;;;;;;;;;;;;35.08;55.59;100281.19;5089268;27;66429;-45
2023/04/22 10:28:34;;;;;;;;;;;;;;;35.10;55.43;100292.66;5087204;27;70288;-45
2023/04/22 10:31:19;;;;;;;;;;;;;;;35.10;56.27;100302.72;5086744;27;67706;-45
2023/04/22 10:33:49;;;;;;;;;;;;;;;35.09;56.70;100304.63;5095526;27;69397;-46
2023/04/22 10:36:20;;;;;;;;;;;;;;;35.12;56.16;100309.56;5100253;27;65673;-44
2023/04/22 10:38:50;;;;;;;;;;;;;;;35.12;56.52;100312.28;5094175;27;70332;-45
2023/04/22 10:41:24;;;;;;;;;;;;;;;35.12;56.28;100317.75;5100965;27;66105;-45
2023/04/22 10:44:12;;;;;;;;;;;;;;;35.12;56.27;100306.84;5091650;27;69542;-44
2023/04/22 10:46:51;;;;;;;;;;;;;;;35.13;56.48;100311.22;5098723;27;66678;-44
2023/04/22 10:49:22;;;;;;;;;;;;;;;35.12;56.61;100320.47;5091937;27;70433;-45
2023/04/22 10:52:00;;;;;;;;;;;;;;;35.11;56.85;100324.28;5089967;27;66350;-45
2023/04/22 10:54:35;;;;;;;;;;;;;;;35.11;56.90;100332.47;5092757;27;70345;-45
2023/04/22 10:57:17;;;;;;;;;;;;;;;35.11;57.39;100328.91;5095156;27;65005;-45
2023/04/22 10:59:49;;;;;;;;;;;;;;;34.67;57.05;100255.53;5094740;27;69905;-45
2023/04/22 11:02:21;;;;;;;;;;;;;;;35.05;57.97;100322.59;5090004;27;66284;-45
2023/04/22 11:05:12;;;;;;;;;;;;;;;35.04;58.83;100336.47;5066909;27;68855;-45
2023/04/22 11:07:42;;;;;;;;;;;;;;;35.05;59.11;100336.22;5095713;27;65554;-45
2023/04/22 11:10:29;;;;;;;;;;;;;;;35.03;58.81;100343.81;5097069;27;69792;-46
2023/04/22 11:13:01;;;;;;;;;;;;;;;34.99;59.77;100334.50;5095150;27;66525;-45
2023/04/22 11:15:34;;;;;;;;;;;;;;;35.00;59.58;100336.16;5096057;27;69689;-44
2023/04/22 11:18:13;;;;;;;;;;;;;;;34.99;60.40;100334.50;5100684;27;66515;-44
2023/04/22 11:20:44;;;;;;;;;;;;;;;34.97;59.88;100320.34;5093228;27;69743;-52
2023/04/22 11:23:22;;;;;;;;;;;;;;;34.97;60.66;100325.78;5100372;27;66311;-46
2023/04/22 11:25:57;;;;;;;;;;;;;;;34.95;60.78;100327.94;5096646;27;69760;-45
2023/04/22 11:28:28;;;;;;;;;;;;;;;34.94;60.75;100331.78;5084790;27;66535;-46
2023/04/22 11:31:04;;;;;;;;;;;;;;;34.94;60.31;100334.50;5091165;27;70331;-45
2023/04/22 11:33:35;;;;;;;;;;;;;;;34.93;60.74;100346.47;5096712;27;66123;-47
2023/04/22 11:36:14;;;;;;;;;;;;;;;34.92;60.87;100350.28;5098303;27;69962;-45
2023/04/22 11:39:07;;;;;;;;;;;;;;;34.91;60.96;100354.91;5098126;27;66149;-45
2023/04/22 11:41:39;;;;;;;;;;;;;;;34.83;62.36;100351.84;5090426;27;70813;-45
2023/04/22 11:44:13;;;;;;;;;;;;;;;34.57;63.70;100367.94;5093420;27;67037;-49
2023/04/22 11:46:43;;;;;;;;;;;;;;;34.37;64.64;100370.44;5097529;27;70147;-44
2023/04/22 11:49:14;;;;;;;;;;;;;;;34.08;62.29;100370.69;5086467;27;66101;-41
2023/04/22 11:51:52;;;;;;;;;;;;;;;33.79;60.25;100370.84;5089936;27;69397;-44
2023/04/22 11:54:48;;;;;;;;;;;;;;;33.55;58.26;100372.97;5078417;27;66274;-45
2023/04/22 11:57:20;;;;;;;;;;;;;;;33.31;56.94;100385.09;5085137;27;69843;-44
2023/04/22 12:00:00;;;;;;;;;;;;;;;33.09;55.25;100388.53;5102617;27;65329;-44
2023/04/22 12:02:31;;;;;;;;;;;;;;;32.97;54.49;100393.22;5088490;27;70171;-42
2023/04/22 12:05:02;;;;;;;;;;;;;;;32.82;53.42;100399.22;5093345;27;66320;-44
2023/04/22 12:07:33;;;;;;;;;;;;;;;32.74;52.51;100402.34;5089184;27;69870;-43
2023/04/22 12:10:06;;;;;;;;;;;;;;;32.61;52.66;100408.06;5093377;27;66743;-44
2023/04/22 12:12:38;;;;;;;;;;;;;;;32.57;53.77;100406.88;5091556;27;69922;-46
2023/04/22 12:15:10;;;;;;;;;;;;;;;32.44;52.88;100408.81;5086422;27;66052;-44
2023/04/22 12:17:44;;;;;;;;;;;;;;;32.36;52.12;100411.91;5095203;27;68607;-45
2023/04/22 12:20:15;;;;;;;;;;;;;;;32.28;51.23;100415.00;5093188;27;66899;-46
2023/04/22 12:22:45;;;;;;;;;;;;;;;32.18;50.32;100422.94;5098212;27;70017;-46
2023/04/22 12:25:18;;;;;;;;;;;;;;;32.14;50.91;100419.06;5092165;27;67015;-45
2023/04/22 12:27:48;;;;;;;;;;;;;;;32.06;49.67;100422.97;5094001;27;69320;-45
2023/04/22 12:30:19;;;;;;;;;;;;;;;31.98;49.14;100426.91;5096438;27;66944;-43
2023/04/22 12:32:49;;;;;;;;;;;;;;;31.93;48.30;100443.06;5092151;27;69637;-48
2023/04/22 12:35:20;;;;;;;;;;;;;;;31.85;47.54;100443.38;5101166;27;66059;-47
2023/04/22 12:37:51;;;;;;;;;;;;;;;31.81;46.68;100447.63;5097819;27;70766;-48
2023/04/22 12:40:22;;;;;;;;;;;;;;;31.74;46.53;100433.38;5087091;27;66246;-46
2023/04/22 12:42:52;;;;;;;;;;;;;;;31.64;46.17;100442.09;5094102;27;70605;-47
2023/04/22 12:45:23;;;;;;;;;;;;;;;31.58;45.68;100460.13;5097870;27;67230;-45
2023/04/22 12:47:54;;;;;;;;;;;;;;;31.55;45.50;100471.44;5082511;27;70042;-46
2023/04/22 12:50:24;;;;;;;;;;;;;;;31.53;47.15;100462.72;5094057;27;65680;-44
2023/04/22 12:52:54;;;;;;;;;;;;;;;31.48;47.35;100453.63;5089738;27;70181;-44
2023/04/22 12:55:25;;;;;;;;;;;;;;;31.46;46.96;100445.75;5087408;27;65672;-45
2023/04/22 12:57:55;;;;;;;;;;;;;;;31.42;47.17;100449.97;5094787;27;70943;-45
2023/04/22 13:00:26;;;;;;;;;;;;;;;31.40;46.47;100457.53;5097397;27;66483;-38